sensor_id;sensor_type;location;lat;lon;timestamp;pressure;altitude;pressure_sealevel;temperature;humidity
68793;BME280;55778;54.346;10.210;2023-05-08T00:00:36;102180.03;;;9.19;79.90
68793;BME280;55778;54.346;10.210;2023-05-08T00:03:03;102189.91;;;9.20;79.97
68793;BME280;55778;54.346;10.210;2023-05-08T00:05:28;102187.41;;;9.17;80.51
68793;BME280;55778;54.346;10.210;2023-05-08T00:07:54;102186.66;;;9.15;80.37
68793;BME280;55778;54.346;10.210;2023-05-08T00:10:26;102192.78;;;9.05;80.79
68793;BME280;55778;54.346;10.210;2023-05-08T00:12:51;102191.91;;;9.04;81.17
68793;BME280;55778;54.346;10.210;2023-05-08T00:15:17;102189.38;;;9.01;81.49
68793;BME280;55778;54.346;10.210;2023-05-08T00:17:42;102189.69;;;8.97;81.69
68793;BME280;55778;54.346;10.210;2023-05-08T00:20:08;102194.16;;;8.98;81.84
68793;BME280;55778;54.346;10.210;2023-05-08T00:22:33;102190.00;;;8.92;81.59
68793;BME280;55778;54.346;10.210;2023-05-08T00:24:59;102184.06;;;8.86;82.26
68793;BME280;55778;54.346;10.210;2023-05-08T00:27:24;102185.34;;;8.80;82.77
68793;BME280;55778;54.346;10.210;2023-05-08T00:29:49;102185.66;;;8.76;83.40
68793;BME280;55778;54.346;10.210;2023-05-08T00:32:15;102194.88;;;8.73;83.78
68793;BME280;55778;54.346;10.210;2023-05-08T00:34:40;102191.78;;;8.65;84.05
68793;BME280;55778;54.346;10.210;2023-05-08T00:37:05;102199.38;;;8.60;84.56
68793;BME280;55778;54.346;10.210;2023-05-08T00:39:33;102202.66;;;8.65;84.45
68793;BME280;55778;54.346;10.210;2023-05-08T00:41:59;102204.72;;;8.62;84.79
68793;BME280;55778;54.346;10.210;2023-05-08T00:44:24;102202.19;;;8.59;85.02
68793;BME280;55778;54.346;10.210;2023-05-08T00:46:50;102205.00;;;8.57;85.07
68793;BME280;55778;54.346;10.210;2023-05-08T00:49:15;102208.41;;;8.47;85.49
68793;BME280;55778;54.346;10.210;2023-05-08T00:51:42;102211.50;;;8.41;85.97
68793;BME280;55778;54.346;10.210;2023-05-08T00:54:09;102207.53;;;8.32;86.32
68793;BME280;55778;54.346;10.210;2023-05-08T00:56:36;102212.38;;;8.27;86.99
68793;BME280;55778;54.346;10.210;2023-05-08T00:59:02;102206.78;;;8.14;87.62
68793;BME280;55778;54.346;10.210;2023-05-08T01:01:28;102219.44;;;8.30;87.36
68793;BME280;55778;54.346;10.210;2023-05-08T01:03:54;102212.72;;;8.21;87.62
68793;BME280;55778;54.346;10.210;2023-05-08T01:06:20;102214.63;;;8.19;87.86
68793;BME280;55778;54.346;10.210;2023-05-08T01:08:45;102213.16;;;8.29;87.41
68793;BME280;55778;54.346;10.210;2023-05-08T01:19:31;102204.25;;;7.97;88.95
68793;BME280;55778;54.346;10.210;2023-05-08T01:33:00;102219.94;;;7.92;90.19
68793;BME280;55778;54.346;10.210;2023-05-08T01:35:31;102217.28;;;7.77;90.38
68793;BME280;55778;54.346;10.210;2023-05-08T01:38:17;102220.50;;;7.83;90.49
68793;BME280;55778;54.346;10.210;2023-05-08T01:46:21;102219.44;;;7.86;90.86
68793;BME280;55778;54.346;10.210;2023-05-08T01:48:48;102224.28;;;7.81;90.69
68793;BME280;55778;54.346;10.210;2023-05-08T01:51:22;102220.19;;;7.74;91.00
68793;BME280;55778;54.346;10.210;2023-05-08T01:53:50;102223.00;;;7.86;90.86
68793;BME280;55778;54.346;10.210;2023-05-08T01:56:20;102233.03;;;7.86;90.64
68793;BME280;55778;54.346;10.210;2023-05-08T01:58:49;102229.41;;;7.85;90.53
68793;BME280;55778;54.346;10.210;2023-05-08T02:01:17;102232.56;;;7.93;90.17
68793;BME280;55778;54.346;10.210;2023-05-08T02:03:45;102228.97;;;7.93;90.33
68793;BME280;55778;54.346;10.210;2023-05-08T02:06:13;102237.09;;;7.93;90.23
68793;BME280;55778;54.346;10.210;2023-05-08T02:08:42;102235.19;;;7.95;90.31
68793;BME280;55778;54.346;10.210;2023-05-08T02:11:10;102234.56;;;7.90;90.43
68793;BME280;55778;54.346;10.210;2023-05-08T02:13:37;102231.69;;;7.93;90.46
68793;BME280;55778;54.346;10.210;2023-05-08T02:16:06;102231.84;;;7.90;90.61
68793;BME280;55778;54.346;10.210;2023-05-08T02:18:33;102240.69;;;7.93;90.89
68793;BME280;55778;54.346;10.210;2023-05-08T02:21:01;102234.66;;;7.88;90.76
68793;BME280;55778;54.346;10.210;2023-05-08T02:23:28;102232.66;;;7.92;91.09
68793;BME280;55778;54.346;10.210;2023-05-08T02:25:55;102229.22;;;7.88;91.07
68793;BME280;55778;54.346;10.210;2023-05-08T02:28:22;102229.16;;;7.90;91.05
68793;BME280;55778;54.346;10.210;2023-05-08T02:30:49;102232.31;;;7.82;91.29
68793;BME280;55778;54.346;10.210;2023-05-08T02:33:17;102235.50;;;7.75;91.75
68793;BME280;55778;54.346;10.210;2023-05-08T02:35:43;102236.38;;;7.75;91.91
68793;BME280;55778;54.346;10.210;2023-05-08T02:38:11;102226.88;;;7.68;92.03
68793;BME280;55778;54.346;10.210;2023-05-08T02:40:43;102235.69;;;7.72;91.88
68793;BME280;55778;54.346;10.210;2023-05-08T02:43:10;102237.72;;;7.68;92.33
68793;BME280;55778;54.346;10.210;2023-05-08T02:45:48;102229.25;;;7.59;93.25
68793;BME280;55778;54.346;10.210;2023-05-08T02:48:21;102223.81;;;7.59;92.79
68793;BME280;55778;54.346;10.210;2023-05-08T02:51:01;102231.16;;;7.57;93.24
68793;BME280;55778;54.346;10.210;2023-05-08T02:53:35;102226.72;;;7.56;93.15
68793;BME280;55778;54.346;10.210;2023-05-08T02:56:09;102224.09;;;7.54;93.15
68793;BME280;55778;54.346;10.210;2023-05-08T03:01:21;102216.22;;;7.50;93.13
68793;BME280;55778;54.346;10.210;2023-05-08T03:04:18;102211.88;;;7.47;93.05
68793;BME280;55778;54.346;10.210;2023-05-08T03:06:43;102216.31;;;7.48;93.06
68793;BME280;55778;54.346;10.210;2023-05-08T03:09:19;102216.94;;;7.38;93.42
68793;BME280;55778;54.346;10.210;2023-05-08T03:11:47;102218.78;;;7.37;93.57
68793;BME280;55778;54.346;10.210;2023-05-08T03:14:15;102218.59;;;7.40;93.36
68793;BME280;55778;54.346;10.210;2023-05-08T03:16:43;102210.38;;;7.42;92.75
68793;BME280;55778;54.346;10.210;2023-05-08T03:19:18;102207.56;;;7.43;92.37
68793;BME280;55778;54.346;10.210;2023-05-08T03:21:46;102208.63;;;7.41;92.38
68793;BME280;55778;54.346;10.210;2023-05-08T03:24:14;102206.09;;;7.38;92.52
68793;BME280;55778;54.346;10.210;2023-05-08T03:26:42;102206.88;;;7.40;92.29
68793;BME280;55778;54.346;10.210;2023-05-08T03:29:08;102209.50;;;7.41;92.25
68793;BME280;55778;54.346;10.210;2023-05-08T03:31:35;102207.84;;;7.39;92.06
68793;BME280;55778;54.346;10.210;2023-05-08T03:34:01;102197.88;;;7.39;91.95
68793;BME280;55778;54.346;10.210;2023-05-08T03:36:29;102197.88;;;7.39;91.76
68793;BME280;55778;54.346;10.210;2023-05-08T03:38:55;102198.66;;;7.41;91.88
68793;BME280;55778;54.346;10.210;2023-05-08T03:41:21;102200.75;;;7.36;91.71
68793;BME280;55778;54.346;10.210;2023-05-08T03:43:47;102196.41;;;7.34;92.23
68793;BME280;55778;54.346;10.210;2023-05-08T03:46:13;102199.38;;;7.29;92.45
68793;BME280;55778;54.346;10.210;2023-05-08T03:48:41;102194.06;;;7.28;92.67
68793;BME280;55778;54.346;10.210;2023-05-08T03:51:07;102188.53;;;7.29;92.51
68793;BME280;55778;54.346;10.210;2023-05-08T03:53:33;102188.34;;;7.32;92.45
68793;BME280;55778;54.346;10.210;2023-05-08T03:55:59;102184.66;;;7.33;92.56
68793;BME280;55778;54.346;10.210;2023-05-08T03:58:43;102188.94;;;7.37;92.04
68793;BME280;55778;54.346;10.210;2023-05-08T04:01:24;102190.81;;;7.37;91.90
68793;BME280;55778;54.346;10.210;2023-05-08T04:06:43;102192.34;;;7.41;91.78
68793;BME280;55778;54.346;10.210;2023-05-08T04:09:42;102189.91;;;7.36;92.00
68793;BME280;55778;54.346;10.210;2023-05-08T04:12:13;102183.44;;;7.39;91.81
68793;BME280;55778;54.346;10.210;2023-05-08T04:14:44;102184.13;;;7.42;91.64
68793;BME280;55778;54.346;10.210;2023-05-08T04:17:14;102182.03;;;7.47;91.07
68793;BME280;55778;54.346;10.210;2023-05-08T04:19:45;102175.72;;;7.47;91.32
68793;BME280;55778;54.346;10.210;2023-05-08T04:22:11;102169.03;;;7.52;90.94
68793;BME280;55778;54.346;10.210;2023-05-08T04:24:41;102173.34;;;7.56;90.97
68793;BME280;55778;54.346;10.210;2023-05-08T04:27:08;102184.94;;;7.58;90.94
68793;BME280;55778;54.346;10.210;2023-05-08T04:29:35;102180.13;;;7.63;90.58
68793;BME280;55778;54.346;10.210;2023-05-08T04:32:03;102184.41;;;7.67;90.58
68793;BME280;55778;54.346;10.210;2023-05-08T04:34:29;102185.84;;;7.73;90.29
68793;BME280;55778;54.346;10.210;2023-05-08T04:36:54;102181.22;;;7.75;90.28
68793;BME280;55778;54.346;10.210;2023-05-08T04:39:20;102181.94;;;7.78;89.95
68793;BME280;55778;54.346;10.210;2023-05-08T04:41:46;102185.03;;;7.86;89.25
68793;BME280;55778;54.346;10.210;2023-05-08T04:44:13;102180.47;;;7.87;88.69
68793;BME280;55778;54.346;10.210;2023-05-08T04:46:38;102174.69;;;7.93;88.19
68793;BME280;55778;54.346;10.210;2023-05-08T04:49:03;102186.97;;;7.98;87.69
68793;BME280;55778;54.346;10.210;2023-05-08T04:51:29;102183.91;;;8.04;86.83
68793;BME280;55778;54.346;10.210;2023-05-08T04:53:56;102191.47;;;8.13;86.79
68793;BME280;55778;54.346;10.210;2023-05-08T04:56:21;102193.19;;;8.14;86.76
68793;BME280;55778;54.346;10.210;2023-05-08T04:58:47;102191.00;;;8.21;85.67
68793;BME280;55778;54.346;10.210;2023-05-08T05:01:12;102194.34;;;8.26;85.32
68793;BME280;55778;54.346;10.210;2023-05-08T05:03:37;102192.88;;;8.35;84.98
68793;BME280;55778;54.346;10.210;2023-05-08T05:06:03;102196.00;;;8.43;84.46
68793;BME280;55778;54.346;10.210;2023-05-08T05:08:28;102195.56;;;8.49;84.58
68793;BME280;55778;54.346;10.210;2023-05-08T05:10:54;102200.53;;;8.56;83.56
68793;BME280;55778;54.346;10.210;2023-05-08T05:13:19;102198.41;;;8.61;83.18
68793;BME280;55778;54.346;10.210;2023-05-08T05:15:45;102196.06;;;8.69;82.69
68793;BME280;55778;54.346;10.210;2023-05-08T05:18:10;102194.69;;;8.76;82.03
68793;BME280;55778;54.346;10.210;2023-05-08T05:20:37;102193.59;;;8.79;82.24
68793;BME280;55778;54.346;10.210;2023-05-08T05:23:02;102198.94;;;8.80;81.77
68793;BME280;55778;54.346;10.210;2023-05-08T05:25:28;102191.28;;;8.87;81.72
68793;BME280;55778;54.346;10.210;2023-05-08T05:27:54;102190.88;;;8.93;81.42
68793;BME280;55778;54.346;10.210;2023-05-08T05:30:19;102194.53;;;8.92;81.33
68793;BME280;55778;54.346;10.210;2023-05-08T05:32:45;102196.31;;;8.93;80.71
68793;BME280;55778;54.346;10.210;2023-05-08T05:35:10;102198.94;;;8.94;81.07
68793;BME280;55778;54.346;10.210;2023-05-08T05:37:36;102198.75;;;8.97;81.47
68793;BME280;55778;54.346;10.210;2023-05-08T05:40:02;102203.78;;;9.03;80.49
68793;BME280;55778;54.346;10.210;2023-05-08T05:42:27;102203.78;;;9.03;80.51
68793;BME280;55778;54.346;10.210;2023-05-08T05:44:53;102208.03;;;9.07;80.52
68793;BME280;55778;54.346;10.210;2023-05-08T05:47:18;102197.94;;;9.09;80.18
68793;BME280;55778;54.346;10.210;2023-05-08T05:49:44;102208.59;;;9.12;79.35
68793;BME280;55778;54.346;10.210;2023-05-08T05:52:12;102209.34;;;9.14;78.81
68793;BME280;55778;54.346;10.210;2023-05-08T05:54:37;102206.13;;;9.22;79.15
68793;BME280;55778;54.346;10.210;2023-05-08T05:57:03;102205.53;;;9.31;78.74
68793;BME280;55778;54.346;10.210;2023-05-08T05:59:29;102211.25;;;9.26;78.24
68793;BME280;55778;54.346;10.210;2023-05-08T06:01:54;102207.75;;;9.24;78.03
68793;BME280;55778;54.346;10.210;2023-05-08T06:04:19;102213.69;;;9.31;78.16
68793;BME280;55778;54.346;10.210;2023-05-08T06:06:45;102211.84;;;9.31;77.23
68793;BME280;55778;54.346;10.210;2023-05-08T06:09:10;102210.06;;;9.30;77.38
68793;BME280;55778;54.346;10.210;2023-05-08T06:11:35;102210.84;;;9.32;77.77
68793;BME280;55778;54.346;10.210;2023-05-08T06:14:01;102217.00;;;9.48;78.29
68793;BME280;55778;54.346;10.210;2023-05-08T06:16:26;102206.22;;;9.47;77.08
68793;BME280;55778;54.346;10.210;2023-05-08T06:18:52;102206.13;;;9.48;77.08
68793;BME280;55778;54.346;10.210;2023-05-08T06:21:17;102204.97;;;9.52;76.89
68793;BME280;55778;54.346;10.210;2023-05-08T06:23:42;102211.44;;;9.37;76.53
68793;BME280;55778;54.346;10.210;2023-05-08T06:26:08;102211.22;;;9.40;76.99
68793;BME280;55778;54.346;10.210;2023-05-08T06:28:33;102215.06;;;9.50;76.45
68793;BME280;55778;54.346;10.210;2023-05-08T06:30:59;102210.53;;;9.63;76.72
68793;BME280;55778;54.346;10.210;2023-05-08T06:33:24;102211.34;;;9.90;75.85
68793;BME280;55778;54.346;10.210;2023-05-08T06:35:50;102204.97;;;10.17;75.37
68793;BME280;55778;54.346;10.210;2023-05-08T06:38:15;102196.28;;;10.24;74.04
68793;BME280;55778;54.346;10.210;2023-05-08T06:40:44;102200.06;;;10.34;73.44
68793;BME280;55778;54.346;10.210;2023-05-08T06:43:10;102204.66;;;10.46;73.27
68793;BME280;55778;54.346;10.210;2023-05-08T06:45:36;102200.38;;;10.80;72.67
68793;BME280;55778;54.346;10.210;2023-05-08T06:48:02;102203.66;;;10.72;71.94
68793;BME280;55778;54.346;10.210;2023-05-08T06:50:27;102205.38;;;10.73;71.14
68793;BME280;55778;54.346;10.210;2023-05-08T06:52:52;102198.84;;;10.76;71.95
68793;BME280;55778;54.346;10.210;2023-05-08T06:55:18;102201.34;;;10.79;70.66
68793;BME280;55778;54.346;10.210;2023-05-08T06:57:43;102195.31;;;10.86;70.86
68793;BME280;55778;54.346;10.210;2023-05-08T07:00:09;102198.75;;;11.01;70.38
68793;BME280;55778;54.346;10.210;2023-05-08T07:02:35;102191.78;;;11.09;69.79
68793;BME280;55778;54.346;10.210;2023-05-08T07:05:01;102194.31;;;11.23;68.20
68793;BME280;55778;54.346;10.210;2023-05-08T07:07:27;102192.13;;;11.28;67.39
68793;BME280;55778;54.346;10.210;2023-05-08T07:09:52;102188.81;;;11.12;66.37
68793;BME280;55778;54.346;10.210;2023-05-08T07:12:18;102186.59;;;11.41;66.99
68793;BME280;55778;54.346;10.210;2023-05-08T07:14:44;102184.59;;;11.55;64.92
68793;BME280;55778;54.346;10.210;2023-05-08T07:17:09;102185.44;;;11.56;64.58
68793;BME280;55778;54.346;10.210;2023-05-08T07:19:35;102184.03;;;11.63;64.98
68793;BME280;55778;54.346;10.210;2023-05-08T07:22:01;102189.06;;;11.80;63.73
68793;BME280;55778;54.346;10.210;2023-05-08T07:24:26;102182.44;;;12.17;63.85
68793;BME280;55778;54.346;10.210;2023-05-08T07:26:52;102183.69;;;12.24;62.56
68793;BME280;55778;54.346;10.210;2023-05-08T07:29:17;102183.97;;;12.32;62.55
68793;BME280;55778;54.346;10.210;2023-05-08T07:31:44;102190.81;;;11.92;61.63
68793;BME280;55778;54.346;10.210;2023-05-08T07:34:11;102190.53;;;11.84;62.15
68793;BME280;55778;54.346;10.210;2023-05-08T07:36:36;102181.56;;;12.05;62.18
68793;BME280;55778;54.346;10.210;2023-05-08T07:39:02;102180.22;;;12.22;61.23
68793;BME280;55778;54.346;10.210;2023-05-08T07:41:28;102181.75;;;12.37;60.75
68793;BME280;55778;54.346;10.210;2023-05-08T07:43:53;102170.53;;;12.73;60.75
68793;BME280;55778;54.346;10.210;2023-05-08T07:46:19;102173.53;;;12.81;60.01
68793;BME280;55778;54.346;10.210;2023-05-08T07:48:44;102182.84;;;12.57;59.09
68793;BME280;55778;54.346;10.210;2023-05-08T07:51:10;102171.53;;;12.61;58.66
68793;BME280;55778;54.346;10.210;2023-05-08T07:53:36;102175.41;;;12.70;59.19
68793;BME280;55778;54.346;10.210;2023-05-08T07:56:01;102172.41;;;12.84;58.37
68793;BME280;55778;54.346;10.210;2023-05-08T07:58:26;102167.31;;;12.90;58.82
68793;BME280;55778;54.346;10.210;2023-05-08T08:00:52;102169.38;;;13.20;58.05
68793;BME280;55778;54.346;10.210;2023-05-08T08:03:18;102166.91;;;13.17;56.56
68793;BME280;55778;54.346;10.210;2023-05-08T08:05:43;102172.25;;;13.18;56.43
68793;BME280;55778;54.346;10.210;2023-05-08T08:08:09;102175.44;;;13.34;56.39
68793;BME280;55778;54.346;10.210;2023-05-08T08:10:34;102167.53;;;13.09;54.55
68793;BME280;55778;54.346;10.210;2023-05-08T08:13:00;102171.78;;;13.45;54.99
68793;BME280;55778;54.346;10.210;2023-05-08T08:15:26;102165.94;;;13.49;54.28
68793;BME280;55778;54.346;10.210;2023-05-08T08:17:53;102170.34;;;13.61;54.50
68793;BME280;55778;54.346;10.210;2023-05-08T08:20:18;102168.59;;;13.60;53.23
68793;BME280;55778;54.346;10.210;2023-05-08T08:22:44;102178.41;;;13.42;52.26
68793;BME280;55778;54.346;10.210;2023-05-08T08:25:09;102170.63;;;13.58;51.82
68793;BME280;55778;54.346;10.210;2023-05-08T08:27:35;102171.41;;;13.81;52.66
68793;BME280;55778;54.346;10.210;2023-05-08T08:30:00;102172.75;;;13.75;51.32
68793;BME280;55778;54.346;10.210;2023-05-08T08:32:26;102166.69;;;13.72;51.87
68793;BME280;55778;54.346;10.210;2023-05-08T08:34:51;102165.03;;;14.01;51.29
68793;BME280;55778;54.346;10.210;2023-05-08T08:37:16;102159.91;;;14.07;51.72
68793;BME280;55778;54.346;10.210;2023-05-08T08:39:42;102147.50;;;14.24;50.86
68793;BME280;55778;54.346;10.210;2023-05-08T08:42:07;102144.56;;;14.46;51.02
68793;BME280;55778;54.346;10.210;2023-05-08T08:44:33;102145.69;;;14.74;50.36
68793;BME280;55778;54.346;10.210;2023-05-08T08:46:59;102138.69;;;15.09;50.05
68793;BME280;55778;54.346;10.210;2023-05-08T08:49:34;102144.06;;;15.01;48.78
68793;BME280;55778;54.346;10.210;2023-05-08T08:52:10;102139.16;;;15.24;48.37
68793;BME280;55778;54.346;10.210;2023-05-08T08:54:40;102137.97;;;15.07;47.98
68793;BME280;55778;54.346;10.210;2023-05-08T08:57:08;102144.94;;;15.21;48.36
68793;BME280;55778;54.346;10.210;2023-05-08T08:59:37;102141.41;;;14.90;47.20
68793;BME280;55778;54.346;10.210;2023-05-08T09:02:14;102131.75;;;15.15;47.96
68793;BME280;55778;54.346;10.210;2023-05-08T09:04:42;102137.75;;;15.39;47.30
68793;BME280;55778;54.346;10.210;2023-05-08T09:07:08;102133.00;;;15.88;46.90
68793;BME280;55778;54.346;10.210;2023-05-08T09:09:35;102137.16;;;15.92;45.14
68793;BME280;55778;54.346;10.210;2023-05-08T09:12:02;102129.06;;;16.01;45.81
68793;BME280;55778;54.346;10.210;2023-05-08T09:14:27;102128.94;;;15.92;44.21
68793;BME280;55778;54.346;10.210;2023-05-08T09:16:53;102119.81;;;15.92;43.77
68793;BME280;55778;54.346;10.210;2023-05-08T09:19:20;102109.63;;;16.21;44.82
68793;BME280;55778;54.346;10.210;2023-05-08T09:21:45;102112.03;;;16.34;43.89
68793;BME280;55778;54.346;10.210;2023-05-08T09:24:11;102119.28;;;16.35;42.49
68793;BME280;55778;54.346;10.210;2023-05-08T09:26:39;102112.69;;;16.55;41.97
68793;BME280;55778;54.346;10.210;2023-05-08T09:31:41;102114.50;;;16.73;42.60
68793;BME280;55778;54.346;10.210;2023-05-08T09:34:26;102114.94;;;16.96;42.97
68793;BME280;55778;54.346;10.210;2023-05-08T09:37:14;102114.59;;;16.81;42.04
68793;BME280;55778;54.346;10.210;2023-05-08T09:39:39;102104.84;;;16.87;42.47
68793;BME280;55778;54.346;10.210;2023-05-08T09:42:06;102112.25;;;16.86;42.16
68793;BME280;55778;54.346;10.210;2023-05-08T09:44:45;102104.66;;;16.98;42.29
68793;BME280;55778;54.346;10.210;2023-05-08T09:47:12;102101.53;;;17.28;41.65
68793;BME280;55778;54.346;10.210;2023-05-08T09:49:38;102112.88;;;17.42;42.02
68793;BME280;55778;54.346;10.210;2023-05-08T09:52:06;102108.25;;;17.78;39.60
68793;BME280;55778;54.346;10.210;2023-05-08T09:54:32;102119.50;;;17.67;40.12
68793;BME280;55778;54.346;10.210;2023-05-08T09:56:58;102116.66;;;17.41;40.29
68793;BME280;55778;54.346;10.210;2023-05-08T09:59:29;102111.72;;;17.62;40.36
68793;BME280;55778;54.346;10.210;2023-05-08T10:01:55;102114.00;;;17.67;39.96
68793;BME280;55778;54.346;10.210;2023-05-08T10:04:34;102114.25;;;17.56;39.70
68793;BME280;55778;54.346;10.210;2023-05-08T10:07:01;102113.34;;;17.38;39.23
68793;BME280;55778;54.346;10.210;2023-05-08T10:09:27;102107.97;;;17.01;39.46
68793;BME280;55778;54.346;10.210;2023-05-08T10:11:53;102108.59;;;17.13;39.76
68793;BME280;55778;54.346;10.210;2023-05-08T10:14:20;102110.13;;;17.42;39.88
68793;BME280;55778;54.346;10.210;2023-05-08T10:16:48;102108.88;;;17.37;39.71
68793;BME280;55778;54.346;10.210;2023-05-08T10:19:15;102095.00;;;17.81;40.78
68793;BME280;55778;54.346;10.210;2023-05-08T10:21:45;102093.19;;;18.16;38.61
68793;BME280;55778;54.346;10.210;2023-05-08T10:24:18;102086.91;;;18.31;38.56
68793;BME280;55778;54.346;10.210;2023-05-08T10:26:51;102085.84;;;18.91;38.18
68793;BME280;55778;54.346;10.210;2023-05-08T10:29:25;102087.69;;;18.83;37.01
68793;BME280;55778;54.346;10.210;2023-05-08T10:31:53;102082.16;;;18.75;36.30
68793;BME280;55778;54.346;10.210;2023-05-08T10:34:22;102078.44;;;19.00;36.27
68793;BME280;55778;54.346;10.210;2023-05-08T10:36:48;102088.03;;;18.80;35.71
68793;BME280;55778;54.346;10.210;2023-05-08T10:39:14;102076.31;;;18.86;36.45
68793;BME280;55778;54.346;10.210;2023-05-08T10:41:41;102081.06;;;19.17;35.95
68793;BME280;55778;54.346;10.210;2023-05-08T10:44:08;102088.81;;;19.14;35.02
68793;BME280;55778;54.346;10.210;2023-05-08T10:47:00;102078.44;;;19.08;34.84
68793;BME280;55778;54.346;10.210;2023-05-08T10:49:39;102068.59;;;18.97;35.30
68793;BME280;55778;54.346;10.210;2023-05-08T10:52:34;102078.91;;;18.87;34.60
68793;BME280;55778;54.346;10.210;2023-05-08T10:55:29;102070.69;;;19.03;34.67
68793;BME280;55778;54.346;10.210;2023-05-08T11:03:24;102057.56;;;19.13;34.62
68793;BME280;55778;54.346;10.210;2023-05-08T11:05:51;102068.47;;;19.15;34.04
68793;BME280;55778;54.346;10.210;2023-05-08T11:08:22;102054.47;;;19.24;33.46
68793;BME280;55778;54.346;10.210;2023-05-08T11:11:12;102063.53;;;19.66;33.37
68793;BME280;55778;54.346;10.210;2023-05-08T11:13:47;102059.03;;;19.82;33.73
68793;BME280;55778;54.346;10.210;2023-05-08T11:16:14;102057.13;;;19.74;32.60
68793;BME280;55778;54.346;10.210;2023-05-08T11:19:14;102063.66;;;20.05;33.24
68793;BME280;55778;54.346;10.210;2023-05-08T11:22:19;102054.34;;;20.14;32.37
68793;BME280;55778;54.346;10.210;2023-05-08T11:24:52;102051.09;;;20.57;31.97
68793;BME280;55778;54.346;10.210;2023-05-08T11:27:34;102045.56;;;20.49;32.39
68793;BME280;55778;54.346;10.210;2023-05-08T11:30:25;102049.06;;;20.43;32.85
68793;BME280;55778;54.346;10.210;2023-05-08T11:44:24;102033.41;;;21.64;30.58
68793;BME280;55778;54.346;10.210;2023-05-08T11:46:35;102038.50;;;21.16;30.87
68793;BME280;55778;54.346;10.210;2023-05-08T11:49:02;102028.69;;;21.05;30.43
68793;BME280;55778;54.346;10.210;2023-05-08T11:51:31;102032.03;;;21.23;30.84
68793;BME280;55778;54.346;10.210;2023-05-08T11:54:00;102035.50;;;21.25;29.00
68793;BME280;55778;54.346;10.210;2023-05-08T11:56:26;102035.66;;;20.63;30.04
68793;BME280;55778;54.346;10.210;2023-05-08T11:59:04;102017.56;;;20.44;30.33
68793;BME280;55778;54.346;10.210;2023-05-08T12:01:31;102019.94;;;20.55;31.04
68793;BME280;55778;54.346;10.210;2023-05-08T12:06:26;102014.84;;;20.67;31.37
68793;BME280;55778;54.346;10.210;2023-05-08T12:08:52;102020.09;;;20.62;30.57
68793;BME280;55778;54.346;10.210;2023-05-08T12:11:24;102007.22;;;20.38;31.10
68793;BME280;55778;54.346;10.210;2023-05-08T12:13:51;102010.00;;;20.69;31.63
68793;BME280;55778;54.346;10.210;2023-05-08T12:16:16;102005.91;;;20.57;30.30
68793;BME280;55778;54.346;10.210;2023-05-08T12:18:42;102017.19;;;20.86;31.27
68793;BME280;55778;54.346;10.210;2023-05-08T12:21:09;102008.75;;;21.32;30.64
68793;BME280;55778;54.346;10.210;2023-05-08T12:23:35;101996.38;;;21.57;29.98
68793;BME280;55778;54.346;10.210;2023-05-08T12:26:02;102000.41;;;21.32;30.73
68793;BME280;55778;54.346;10.210;2023-05-08T12:28:28;101994.72;;;21.48;30.58
68793;BME280;55778;54.346;10.210;2023-05-08T12:30:53;101995.06;;;21.68;29.95
68793;BME280;55778;54.346;10.210;2023-05-08T12:33:19;102004.88;;;21.56;29.92
68793;BME280;55778;54.346;10.210;2023-05-08T12:35:45;102001.94;;;21.57;29.87
68793;BME280;55778;54.346;10.210;2023-05-08T12:38:10;102002.72;;;21.66;29.81
68793;BME280;55778;54.346;10.210;2023-05-08T12:40:44;101995.56;;;21.72;29.43
68793;BME280;55778;54.346;10.210;2023-05-08T12:43:10;101987.59;;;21.91;29.90
68793;BME280;55778;54.346;10.210;2023-05-08T12:45:40;102003.75;;;21.88;29.03
68793;BME280;55778;54.346;10.210;2023-05-08T12:48:09;101985.66;;;21.92;31.04
68793;BME280;55778;54.346;10.210;2023-05-08T12:50:36;101990.53;;;21.75;29.34
68793;BME280;55778;54.346;10.210;2023-05-08T12:53:03;101999.81;;;21.22;29.96
68793;BME280;55778;54.346;10.210;2023-05-08T12:55:30;101999.81;;;21.22;29.06
68793;BME280;55778;54.346;10.210;2023-05-08T12:58:10;101992.34;;;21.00;30.50
68793;BME280;55778;54.346;10.210;2023-05-08T13:00:44;101996.69;;;20.95;29.91
68793;BME280;55778;54.346;10.210;2023-05-08T13:03:13;101994.25;;;20.69;30.55
68793;BME280;55778;54.346;10.210;2023-05-08T13:05:43;101994.13;;;20.55;30.84
68793;BME280;55778;54.346;10.210;2023-05-08T13:08:09;101985.34;;;20.43;30.85
68793;BME280;55778;54.346;10.210;2023-05-08T13:11:02;101971.69;;;19.87;31.00
68793;BME280;55778;54.346;10.210;2023-05-08T13:13:33;101966.28;;;20.02;31.85
68793;BME280;55778;54.346;10.210;2023-05-08T13:16:03;101955.97;;;19.79;31.60
68793;BME280;55778;54.346;10.210;2023-05-08T13:18:29;101955.78;;;19.81;30.54
68793;BME280;55778;54.346;10.210;2023-05-08T13:20:55;101953.84;;;19.90;31.33
68793;BME280;55778;54.346;10.210;2023-05-08T13:23:21;101939.53;;;19.78;31.26
68793;BME280;55778;54.346;10.210;2023-05-08T13:25:46;101934.75;;;19.64;31.86
68793;BME280;55778;54.346;10.210;2023-05-08T13:28:12;101930.09;;;19.48;31.98
68793;BME280;55778;54.346;10.210;2023-05-08T13:30:37;101922.66;;;19.65;33.52
68793;BME280;55778;54.346;10.210;2023-05-08T13:33:03;101930.94;;;19.65;32.06
68793;BME280;55778;54.346;10.210;2023-05-08T13:35:29;101926.47;;;19.64;32.87
68793;BME280;55778;54.346;10.210;2023-05-08T13:37:58;101932.84;;;19.64;32.31
68793;BME280;55778;54.346;10.210;2023-05-08T13:40:24;101926.63;;;19.54;32.35
68793;BME280;55778;54.346;10.210;2023-05-08T13:42:50;101932.38;;;19.37;32.55